createdAt,value
2023-04-07T00:00:32.804Z,5.88
2023-04-07T00:03:02.448Z,5.30
2023-04-07T00:05:30.465Z,6.03
2023-04-07T00:07:57.745Z,5.88
2023-04-07T00:10:27.739Z,4.43
2023-04-07T00:12:57.055Z,4.40
2023-04-07T00:15:24.284Z,4.00
2023-04-07T00:17:51.589Z,4.53
2023-04-07T00:20:19.019Z,4.10
2023-04-07T00:22:46.356Z,4.20
2023-04-07T00:25:13.584Z,4.20
2023-04-07T00:27:41.572Z,3.80
2023-04-07T00:30:10.932Z,3.97
2023-04-07T00:32:38.547Z,4.13
2023-04-07T00:35:06.232Z,4.88
2023-04-07T00:37:33.787Z,5.07
2023-04-07T00:40:01.277Z,4.63
2023-04-07T00:42:28.718Z,6.82
2023-04-07T00:44:56.113Z,7.35
2023-04-07T00:47:23.385Z,6.40
2023-04-07T00:49:50.905Z,7.10
2023-04-07T00:52:19.103Z,6.97
2023-04-07T00:54:50.706Z,6.60
2023-04-07T00:57:18.008Z,7.32
2023-04-07T00:59:45.354Z,6.90
2023-04-07T01:02:20.960Z,6.40
2023-04-07T01:04:54.427Z,5.82
2023-04-07T01:07:29.009Z,6.28
2023-04-07T01:10:05.697Z,6.00
2023-04-07T01:12:57.942Z,5.90
2023-04-07T01:15:25.233Z,5.80
2023-04-07T01:17:56.152Z,5.63
2023-04-07T01:20:23.602Z,5.72
2023-04-07T01:22:55.430Z,4.95
2023-04-07T01:25:44.729Z,5.30
2023-04-07T01:28:26.937Z,4.90
2023-04-07T01:30:54.282Z,5.15
2023-04-07T01:33:21.721Z,5.00
2023-04-07T01:35:49.228Z,5.30
2023-04-07T01:38:17.398Z,4.10
2023-04-07T01:40:44.673Z,4.95
2023-04-07T01:43:11.959Z,4.90
2023-04-07T01:45:39.399Z,4.85
2023-04-07T01:48:07.377Z,5.07
2023-04-07T01:50:35.057Z,5.82
2023-04-07T01:53:03.196Z,5.68
2023-04-07T01:55:30.509Z,6.85
2023-04-07T01:57:57.783Z,5.93
2023-04-07T02:00:25.401Z,6.32
2023-04-07T02:02:55.828Z,6.50
2023-04-07T02:05:23.603Z,5.25
2023-04-07T02:07:57.278Z,5.97
2023-04-07T02:10:25.395Z,6.30
2023-04-07T02:12:53.463Z,6.25
2023-04-07T02:15:20.756Z,6.38
2023-04-07T02:17:53.002Z,6.50
2023-04-07T02:20:20.441Z,6.30
2023-04-07T02:22:47.970Z,6.25
2023-04-07T02:25:26.641Z,4.97
2023-04-07T02:27:54.455Z,5.90
2023-04-07T02:30:23.530Z,6.15
2023-04-07T02:32:51.444Z,6.10
2023-04-07T02:35:18.967Z,6.60
2023-04-07T02:37:49.348Z,6.30
2023-04-07T02:40:16.899Z,5.90
2023-04-07T02:42:44.466Z,6.63
2023-04-07T02:45:11.925Z,8.18
2023-04-07T02:47:40.308Z,6.78
2023-04-07T02:50:08.315Z,6.50
2023-04-07T02:52:35.981Z,6.50
2023-04-07T02:55:04.537Z,5.82
2023-04-07T02:57:31.809Z,5.68
2023-04-07T02:59:59.070Z,6.10
2023-04-07T03:02:27.479Z,6.32
2023-04-07T03:04:54.997Z,5.57
2023-04-07T03:07:22.367Z,5.15
2023-04-07T03:09:51.828Z,4.97
2023-04-07T03:12:19.063Z,6.13
2023-04-07T03:14:46.462Z,6.05
2023-04-07T03:17:18.658Z,5.80
2023-04-07T03:19:47.206Z,5.75
2023-04-07T03:22:14.437Z,6.43
2023-04-07T03:24:41.884Z,5.68
2023-04-07T03:27:09.184Z,6.30
2023-04-07T03:29:37.846Z,7.03
2023-04-07T03:32:05.867Z,7.47
2023-04-07T03:34:33.230Z,7.40
2023-04-07T03:37:01.409Z,6.50
2023-04-07T03:39:28.760Z,6.45
2023-04-07T03:41:57.829Z,7.00
2023-04-07T03:44:25.105Z,6.35
2023-04-07T03:46:53.785Z,6.50
2023-04-07T03:49:22.233Z,6.13
2023-04-07T03:51:49.855Z,6.32
2023-04-07T03:54:17.122Z,6.72
2023-04-07T03:56:44.444Z,5.93
2023-04-07T03:59:14.180Z,6.30
2023-04-07T04:01:41.817Z,6.13
2023-04-07T04:04:09.244Z,6.40
2023-04-07T04:06:37.059Z,5.47
2023-04-07T04:09:04.827Z,5.90
2023-04-07T04:11:32.057Z,5.70
2023-04-07T04:14:01.728Z,6.38
2023-04-07T04:16:29.853Z,6.30
2023-04-07T04:18:57.241Z,6.20
2023-04-07T04:21:24.448Z,6.55
2023-04-07T04:23:52.320Z,6.50
2023-04-07T04:26:21.069Z,6.57
2023-04-07T04:28:51.196Z,6.10
2023-04-07T04:31:18.678Z,6.95
2023-04-07T04:33:46.338Z,6.22
2023-04-07T04:36:13.852Z,6.78
2023-04-07T04:38:41.658Z,7.45
2023-04-07T04:41:11.814Z,7.75
2023-04-07T04:43:39.056Z,7.13
2023-04-07T04:46:06.782Z,8.05
2023-04-07T04:48:34.317Z,7.22
2023-04-07T04:51:01.757Z,7.75
2023-04-07T04:53:30.001Z,7.03
2023-04-07T04:55:57.281Z,7.18
2023-04-07T04:58:24.689Z,8.23
2023-04-07T05:00:58.273Z,7.55
2023-04-07T05:03:28.689Z,7.50
2023-04-07T05:05:57.750Z,8.48
2023-04-07T05:08:28.675Z,8.35
2023-04-07T05:10:57.096Z,8.18
2023-04-07T05:13:25.791Z,7.88
2023-04-07T05:15:54.595Z,8.20
2023-04-07T05:18:22.864Z,7.70
2023-04-07T05:20:50.398Z,7.13
2023-04-07T05:23:17.674Z,6.63
2023-04-07T05:25:45.100Z,6.22
2023-04-07T05:28:12.427Z,6.63
2023-04-07T05:30:41.090Z,5.72
2023-04-07T05:33:09.187Z,5.00
2023-04-07T05:35:36.629Z,4.95
2023-04-07T05:38:04.203Z,5.88
2023-04-07T05:40:31.602Z,5.15
2023-04-07T05:42:59.096Z,5.57
2023-04-07T05:45:27.225Z,5.45
2023-04-07T05:47:54.690Z,5.20
2023-04-07T05:50:22.328Z,4.63
2023-04-07T05:52:49.682Z,4.65
2023-04-07T05:55:18.357Z,4.70
2023-04-07T05:57:45.620Z,5.05
2023-04-07T06:00:13.701Z,5.95
2023-04-07T06:02:44.174Z,5.50
2023-04-07T06:05:11.714Z,5.25
2023-04-07T06:07:39.066Z,5.95
2023-04-07T06:10:07.112Z,6.20
2023-04-07T06:12:34.445Z,5.63
2023-04-07T06:15:01.720Z,6.25
2023-04-07T06:17:30.698Z,6.25
2023-04-07T06:19:57.939Z,6.60
2023-04-07T06:22:25.609Z,7.82
2023-04-07T06:24:53.077Z,7.03
2023-04-07T06:27:21.685Z,6.68
2023-04-07T06:29:49.077Z,6.53
2023-04-07T06:32:17.723Z,7.03
2023-04-07T06:34:45.294Z,7.22
2023-04-07T06:37:13.480Z,7.40
2023-04-07T06:39:41.604Z,8.25
2023-04-07T06:42:09.039Z,8.52
2023-04-07T06:44:37.840Z,7.60
2023-04-07T06:47:05.112Z,9.10
2023-04-07T06:49:37.236Z,8.98
2023-04-07T06:52:05.318Z,7.60
2023-04-07T06:54:32.569Z,8.95
2023-04-07T06:57:00.522Z,7.85
2023-04-07T06:59:32.330Z,8.00
2023-04-07T07:01:59.685Z,7.45
2023-04-07T07:04:27.298Z,8.77
2023-04-07T07:06:56.028Z,7.50
2023-04-07T07:09:23.536Z,7.40
2023-04-07T07:11:53.648Z,7.32
2023-04-07T07:14:21.379Z,7.70
2023-04-07T07:16:48.991Z,6.60
2023-04-07T07:19:16.898Z,6.38
2023-04-07T07:21:44.181Z,6.85
2023-04-07T07:24:11.439Z,6.78
2023-04-07T07:26:39.200Z,7.22
2023-04-07T07:29:06.439Z,7.70
2023-04-07T07:31:34.861Z,6.45
2023-04-07T07:34:02.227Z,7.05
2023-04-07T07:36:32.344Z,7.35
2023-04-07T07:38:59.681Z,7.57
2023-04-07T07:41:27.203Z,6.97
2023-04-07T07:43:55.168Z,7.40
2023-04-07T07:46:24.424Z,8.10
2023-04-07T07:48:51.969Z,7.95
2023-04-07T07:51:20.175Z,7.93
2023-04-07T07:53:47.715Z,6.90
2023-04-07T07:56:15.591Z,8.20
2023-04-07T07:58:42.906Z,7.35
2023-04-07T08:01:11.156Z,7.63
2023-04-07T08:03:40.259Z,7.93
2023-04-07T08:06:09.573Z,6.93
2023-04-07T08:08:37.968Z,7.68
2023-04-07T08:11:05.685Z,7.78
2023-04-07T08:13:32.913Z,6.70
2023-04-07T08:16:00.381Z,7.88
2023-04-07T08:18:27.607Z,8.07
2023-04-07T08:20:54.837Z,8.88
2023-04-07T08:23:22.219Z,7.78
2023-04-07T08:25:49.569Z,8.48
2023-04-07T08:28:23.109Z,8.20
2023-04-07T08:30:50.829Z,7.45
2023-04-07T08:33:18.263Z,8.07
2023-04-07T08:35:45.607Z,8.20
2023-04-07T08:38:13.073Z,8.38
2023-04-07T08:40:40.379Z,8.15
2023-04-07T08:43:09.237Z,8.05
2023-04-07T08:45:39.699Z,7.50
2023-04-07T08:48:17.822Z,8.23
2023-04-07T08:50:46.356Z,8.63
2023-04-07T08:53:16.846Z,8.77
2023-04-07T08:55:44.448Z,9.13
2023-04-07T08:58:12.580Z,8.23
2023-04-07T09:00:46.817Z,8.80
2023-04-07T09:03:21.916Z,9.48
2023-04-07T09:05:49.452Z,8.85
2023-04-07T09:08:16.712Z,10.77
2023-04-07T09:10:51.278Z,11.57
2023-04-07T09:13:19.854Z,9.82
2023-04-07T09:15:47.074Z,10.25
2023-04-07T09:18:14.866Z,10.38
2023-04-07T09:20:58.432Z,9.65
2023-04-07T09:23:33.585Z,9.32
2023-04-07T09:26:02.392Z,9.95
2023-04-07T09:28:42.451Z,9.60
2023-04-07T09:31:09.773Z,9.13
2023-04-07T09:33:38.208Z,8.50
2023-04-07T09:36:06.482Z,8.77
2023-04-07T09:38:35.202Z,9.77
2023-04-07T09:41:10.246Z,10.02
2023-04-07T09:43:39.865Z,8.82
2023-04-07T09:46:28.029Z,8.57
2023-04-07T09:49:02.579Z,9.68
2023-04-07T09:51:30.068Z,9.98
2023-04-07T09:53:57.403Z,9.45
2023-04-07T09:56:24.691Z,11.63
2023-04-07T09:58:52.191Z,9.25
2023-04-07T10:01:21.283Z,9.60
2023-04-07T10:03:51.036Z,9.82
2023-04-07T10:06:18.757Z,9.90
2023-04-07T10:08:47.027Z,9.43
2023-04-07T10:11:14.714Z,10.55
2023-04-07T10:13:42.063Z,10.30
2023-04-07T10:16:11.176Z,9.68
2023-04-07T10:18:39.907Z,11.48
2023-04-07T10:21:08.141Z,10.32
2023-04-07T10:24:05.320Z,10.35
2023-04-07T10:26:34.465Z,10.18
2023-04-07T10:29:04.709Z,10.23
2023-04-07T10:31:33.205Z,9.27
2023-04-07T10:34:05.870Z,10.45
2023-04-07T10:36:34.876Z,10.60
2023-04-07T10:39:08.507Z,10.63
2023-04-07T10:41:42.868Z,10.80
2023-04-07T10:44:12.060Z,10.93
2023-04-07T10:46:47.229Z,9.02
2023-04-07T10:49:19.238Z,10.95
2023-04-07T10:52:12.365Z,10.50
2023-04-07T10:54:40.008Z,10.35
2023-04-07T10:57:12.273Z,10.82
2023-04-07T10:59:43.459Z,9.98
2023-04-07T11:02:14.163Z,9.85
2023-04-07T11:07:10.427Z,8.90
2023-04-07T11:09:37.949Z,8.65
2023-04-07T11:12:06.717Z,8.45
2023-04-07T11:14:37.466Z,9.98
2023-04-07T11:17:04.712Z,9.77
2023-04-07T11:19:52.626Z,9.07
2023-04-07T11:22:29.951Z,9.05
2023-04-07T11:24:58.757Z,8.85
2023-04-07T11:27:27.085Z,9.23
2023-04-07T11:29:54.359Z,7.97
2023-04-07T11:32:29.980Z,8.45
2023-04-07T11:34:57.516Z,9.35
2023-04-07T11:39:57.613Z,8.88
2023-04-07T11:42:39.446Z,8.13
2023-04-07T11:45:16.161Z,7.63
2023-04-07T11:47:43.619Z,8.43
2023-04-07T11:50:13.135Z,8.55
2023-04-07T11:52:48.305Z,7.85
2023-04-07T11:55:24.458Z,7.63
2023-04-07T11:57:52.134Z,6.95
2023-04-07T12:00:20.364Z,7.80
2023-04-07T12:02:48.087Z,8.00
2023-04-07T12:05:15.576Z,7.28
2023-04-07T12:07:53.206Z,7.20
2023-04-07T12:10:21.641Z,7.10
2023-04-07T12:12:58.167Z,6.60
2023-04-07T12:15:27.385Z,7.72
2023-04-07T12:17:55.634Z,6.70
2023-04-07T12:20:27.419Z,6.57
2023-04-07T12:22:56.891Z,7.10
2023-04-07T12:25:24.252Z,7.35
2023-04-07T12:27:51.909Z,6.80
2023-04-07T12:30:19.982Z,7.53
2023-04-07T12:32:48.326Z,7.95
2023-04-07T12:35:18.114Z,6.93
2023-04-07T12:37:49.032Z,6.97
2023-04-07T12:40:17.957Z,7.32
2023-04-07T12:42:45.622Z,6.97
2023-04-07T12:45:12.966Z,8.77
2023-04-07T12:47:40.756Z,7.43
2023-04-07T12:50:08.287Z,7.65
2023-04-07T12:52:37.395Z,7.80
2023-04-07T12:55:05.281Z,7.10
2023-04-07T12:57:32.872Z,6.60
2023-04-07T13:00:00.131Z,6.63
2023-04-07T13:02:27.539Z,6.43
2023-04-07T13:04:55.058Z,5.90
2023-04-07T13:07:22.446Z,6.50
2023-04-07T13:09:50.381Z,6.15
2023-04-07T13:12:17.604Z,5.63
2023-04-07T13:15:05.052Z,6.38
2023-04-07T13:17:33.465Z,7.28
2023-04-07T13:20:01.186Z,6.88
2023-04-07T13:22:28.535Z,5.97
2023-04-07T13:24:56.320Z,6.40
2023-04-07T13:27:24.012Z,5.95
2023-04-07T13:29:51.558Z,6.20
2023-04-07T13:32:19.257Z,7.30
2023-04-07T13:34:46.705Z,7.05
2023-04-07T13:37:13.926Z,6.28
2023-04-07T13:39:42.361Z,6.50
2023-04-07T13:42:10.928Z,6.82
2023-04-07T13:44:43.730Z,7.72
2023-04-07T13:47:11.318Z,10.55
2023-04-07T13:49:38.645Z,6.65
2023-04-07T13:52:05.902Z,6.05
2023-04-07T13:54:33.963Z,6.13
2023-04-07T13:57:01.185Z,5.85
2023-04-07T13:59:28.665Z,5.45
2023-04-07T14:01:56.730Z,6.07
2023-04-07T14:04:24.569Z,5.43
2023-04-07T14:06:51.920Z,5.13
2023-04-07T14:09:19.281Z,5.78
2023-04-07T14:11:47.064Z,6.28
2023-04-07T14:14:14.524Z,6.00
2023-04-07T14:16:43.567Z,5.63
2023-04-07T14:19:10.943Z,5.72
2023-04-07T14:21:38.210Z,5.97
2023-04-07T14:24:06.214Z,5.63
2023-04-07T14:26:33.462Z,5.90
2023-04-07T14:29:01.150Z,5.05
2023-04-07T14:31:28.397Z,5.60
2023-04-07T14:33:55.692Z,6.03
2023-04-07T14:36:23.053Z,5.32
2023-04-07T14:38:51.022Z,5.53
2023-04-07T14:41:18.304Z,6.88
2023-04-07T14:43:45.779Z,5.35
2023-04-07T14:46:14.900Z,6.38
2023-04-07T14:48:42.349Z,6.38
2023-04-07T14:51:13.108Z,5.40
2023-04-07T14:53:45.629Z,5.00
2023-04-07T14:56:13.163Z,5.60
2023-04-07T14:58:46.011Z,5.93
2023-04-07T15:01:13.419Z,6.07
2023-04-07T15:03:42.443Z,6.72
2023-04-07T15:06:10.163Z,5.80
2023-04-07T15:08:40.814Z,6.22
2023-04-07T15:11:08.545Z,5.97
2023-04-07T15:13:36.204Z,6.20
2023-04-07T15:16:10.608Z,6.50
2023-04-07T15:18:38.947Z,6.22
2023-04-07T15:21:06.290Z,6.03
2023-04-07T15:23:34.538Z,6.57
2023-04-07T15:26:01.853Z,7.13
2023-04-07T15:28:33.944Z,6.85
2023-04-07T15:31:01.794Z,7.00
2023-04-07T15:33:29.823Z,6.13
2023-04-07T15:35:57.400Z,5.78
2023-04-07T15:38:25.332Z,6.68
2023-04-07T15:40:52.574Z,6.03
2023-04-07T15:43:20.849Z,6.63
2023-04-07T15:45:48.117Z,6.80
2023-04-07T15:48:16.459Z,6.55
2023-04-07T15:50:43.819Z,7.75
2023-04-07T15:53:11.348Z,8.98
2023-04-07T15:55:38.795Z,10.98
2023-04-07T15:58:08.068Z,7.00
2023-04-07T16:00:35.860Z,7.07
2023-04-07T16:03:04.658Z,6.93
2023-04-07T16:05:32.405Z,6.22
2023-04-07T16:07:59.718Z,7.20
2023-04-07T16:10:27.959Z,6.57
2023-04-07T16:12:55.289Z,7.22
2023-04-07T16:15:36.755Z,7.57
2023-04-07T16:18:07.323Z,6.07
2023-04-07T16:20:34.699Z,5.90
2023-04-07T16:23:02.237Z,4.93
2023-04-07T16:25:29.835Z,4.40
2023-04-07T16:27:57.090Z,4.07
2023-04-07T16:30:25.279Z,4.38
2023-04-07T16:33:13.135Z,4.68
2023-04-07T16:35:40.529Z,4.65
2023-04-07T16:38:08.840Z,4.07
2023-04-07T16:40:36.390Z,4.35
2023-04-07T16:43:03.646Z,4.00
2023-04-07T16:45:31.497Z,3.67
2023-04-07T16:47:58.865Z,4.18
2023-04-07T16:50:26.252Z,4.10
2023-04-07T16:52:54.848Z,4.15
2023-04-07T16:55:22.762Z,4.03
2023-04-07T16:57:50.438Z,4.63
2023-04-07T17:00:19.379Z,3.92
2023-04-07T17:03:06.675Z,4.50
2023-04-07T17:05:34.165Z,4.18
2023-04-07T17:08:01.502Z,4.10
2023-04-07T17:10:30.002Z,4.63
2023-04-07T17:12:57.618Z,3.90
2023-04-07T17:15:26.136Z,4.60
2023-04-07T17:17:56.992Z,4.65
2023-04-07T17:20:24.427Z,4.28
2023-04-07T17:22:52.732Z,4.40
2023-04-07T17:25:20.159Z,4.47
2023-04-07T17:27:48.338Z,4.40
2023-04-07T17:30:18.300Z,3.85
2023-04-07T17:32:46.472Z,4.53
2023-04-07T17:35:13.745Z,5.15
2023-04-07T17:37:41.653Z,4.00
2023-04-07T17:40:09.410Z,4.90
2023-04-07T17:42:37.281Z,3.90
2023-04-07T17:45:11.824Z,5.13
2023-04-07T17:47:39.207Z,4.07
2023-04-07T17:50:06.869Z,7.85
2023-04-07T17:52:34.663Z,7.57
2023-04-07T17:55:02.353Z,9.80
2023-04-07T17:57:30.052Z,9.07
2023-04-07T17:59:57.232Z,9.98
2023-04-07T18:02:26.508Z,10.13
2023-04-07T18:04:54.637Z,9.13
2023-04-07T18:07:22.455Z,9.15
2023-04-07T18:09:49.891Z,9.68
2023-04-07T18:12:17.453Z,9.65
2023-04-07T18:14:45.370Z,9.45
2023-04-07T18:17:12.664Z,7.85
2023-04-07T18:19:40.104Z,8.68
2023-04-07T18:22:09.770Z,10.60
2023-04-07T18:27:05.987Z,8.77
2023-04-07T18:29:33.601Z,9.13
2023-04-07T18:32:01.084Z,7.53
2023-04-07T18:34:28.449Z,8.43
2023-04-07T18:37:01.150Z,8.20
2023-04-07T18:39:28.500Z,8.90
2023-04-07T18:41:57.444Z,6.65
2023-04-07T18:44:25.574Z,8.40
2023-04-07T18:46:53.802Z,7.05
2023-04-07T18:49:21.756Z,6.78
2023-04-07T18:51:49.259Z,5.10
2023-04-07T18:54:21.176Z,5.90
2023-04-07T18:56:49.457Z,5.50
2023-04-07T18:59:16.768Z,6.32
2023-04-07T19:01:44.320Z,5.57
2023-04-07T19:04:11.856Z,5.47
2023-04-07T19:06:39.191Z,6.07
2023-04-07T19:09:06.408Z,6.03
2023-04-07T19:11:33.747Z,5.70
2023-04-07T19:14:01.102Z,5.15
2023-04-07T19:16:28.948Z,5.68
2023-04-07T19:18:56.358Z,4.65
2023-04-07T19:21:23.663Z,5.35
2023-04-07T19:23:51.404Z,5.20
2023-04-07T19:26:18.882Z,5.80
2023-04-07T19:28:46.359Z,7.03
2023-04-07T19:31:13.915Z,7.82
2023-04-07T19:33:42.392Z,7.00
2023-04-07T19:36:12.020Z,7.20
2023-04-07T19:38:40.032Z,7.07
2023-04-07T19:41:07.308Z,7.43
2023-04-07T19:43:34.735Z,6.38
2023-04-07T19:46:03.625Z,6.95
2023-04-07T19:48:31.019Z,6.55
2023-04-07T19:50:58.442Z,6.50
2023-04-07T19:53:30.347Z,6.13
2023-04-07T19:55:57.991Z,6.10
2023-04-07T19:58:25.368Z,5.47
2023-04-07T20:00:54.124Z,5.53
2023-04-07T20:03:23.175Z,5.13
2023-04-07T20:05:52.893Z,4.90
2023-04-07T20:08:21.863Z,5.97
2023-04-07T20:10:52.071Z,5.20
2023-04-07T20:13:21.572Z,5.30
2023-04-07T20:15:49.905Z,7.13
2023-04-07T20:18:18.597Z,6.80
2023-04-07T20:20:50.139Z,7.13
2023-04-07T20:23:22.206Z,6.47
2023-04-07T20:25:49.488Z,7.25
2023-04-07T20:28:17.264Z,8.32
2023-04-07T20:30:45.146Z,7.82
2023-04-07T20:33:14.336Z,8.57
2023-04-07T20:35:42.279Z,8.45
2023-04-07T20:38:09.762Z,6.93
2023-04-07T20:40:38.004Z,7.80
2023-04-07T20:43:06.000Z,7.20
2023-04-07T20:45:33.948Z,7.60
2023-04-07T20:48:01.553Z,7.38
2023-04-07T20:50:29.093Z,8.45
2023-04-07T20:52:59.418Z,8.15
2023-04-07T20:55:30.288Z,8.65
2023-04-07T20:58:01.988Z,8.48
2023-04-07T21:00:30.771Z,8.57
2023-04-07T21:03:04.140Z,7.18
2023-04-07T21:05:33.753Z,8.50
2023-04-07T21:08:03.600Z,7.50
2023-04-07T21:10:34.632Z,7.95
2023-04-07T21:13:02.835Z,6.75
2023-04-07T21:15:31.055Z,6.93
2023-04-07T21:17:58.650Z,7.63
2023-04-07T21:20:25.981Z,7.38
2023-04-07T21:22:53.995Z,6.82
2023-04-07T21:25:21.342Z,7.53
2023-04-07T21:27:48.980Z,7.95
2023-04-07T21:30:16.724Z,8.35
2023-04-07T21:32:47.220Z,6.68
2023-04-07T21:35:14.600Z,7.90
2023-04-07T21:37:42.079Z,7.70
2023-04-07T21:40:11.410Z,7.57
2023-04-07T21:42:39.597Z,8.07
2023-04-07T21:45:07.660Z,8.02
2023-04-07T21:47:35.200Z,8.05
2023-04-07T21:50:02.639Z,9.05
2023-04-07T21:52:30.720Z,8.75
2023-04-07T21:54:58.503Z,8.32
2023-04-07T21:57:27.044Z,8.25
2023-04-07T21:59:54.388Z,7.47
2023-04-07T22:02:21.772Z,8.57
2023-04-07T22:04:49.382Z,9.70
2023-04-07T22:07:17.052Z,8.15
2023-04-07T22:09:44.456Z,8.55
2023-04-07T22:12:17.148Z,9.55
2023-04-07T22:14:45.289Z,9.23
2023-04-07T22:17:12.674Z,9.38
2023-04-07T22:19:39.904Z,8.75
2023-04-07T22:22:08.187Z,9.25
2023-04-07T22:24:35.830Z,8.63
2023-04-07T22:27:03.885Z,9.38
2023-04-07T22:29:31.469Z,8.43
2023-04-07T22:32:05.890Z,8.48
2023-04-07T22:34:35.046Z,10.02
2023-04-07T22:37:02.263Z,8.35
2023-04-07T22:39:29.661Z,8.48
2023-04-07T22:41:57.787Z,8.70
2023-04-07T22:44:28.793Z,9.95
2023-04-07T22:46:56.364Z,9.52
2023-04-07T22:49:23.662Z,10.07
2023-04-07T22:51:51.464Z,11.27
2023-04-07T22:54:18.752Z,9.70
2023-04-07T22:56:46.681Z,9.15
2023-04-07T22:59:14.030Z,10.20
2023-04-07T23:01:41.364Z,9.70
2023-04-07T23:04:08.647Z,9.65
2023-04-07T23:06:36.285Z,9.98
2023-04-07T23:09:03.567Z,9.82
2023-04-07T23:11:30.876Z,10.25
2023-04-07T23:13:58.571Z,8.77
2023-04-07T23:16:28.564Z,9.38
2023-04-07T23:18:55.956Z,10.27
2023-04-07T23:21:23.303Z,10.57
2023-04-07T23:23:50.693Z,10.93
2023-04-07T23:26:18.016Z,11.63
2023-04-07T23:28:46.288Z,11.68
2023-04-07T23:31:13.668Z,10.80
2023-04-07T23:33:41.057Z,11.18
2023-04-07T23:36:08.261Z,13.27
2023-04-07T23:38:39.580Z,12.85
2023-04-07T23:41:07.641Z,11.77
2023-04-07T23:43:36.228Z,13.30
2023-04-07T23:46:03.517Z,13.32
2023-04-07T23:48:32.283Z,14.18
2023-04-07T23:51:02.392Z,12.55
2023-04-07T23:53:30.647Z,13.93
2023-04-07T23:55:57.987Z,12.75
2023-04-07T23:58:25.362Z,10.52
